sensor_id;sensor_type;location;lat;lon;timestamp;pressure;altitude;pressure_sealevel;temperature;humidity
65359;BME280;52491;45.900;6.346;2023-07-16T00:00:27;93917.81;;;29.89;36.17
65359;BME280;52491;45.900;6.346;2023-07-16T00:02:53;93912.63;;;29.93;36.40
65359;BME280;52491;45.900;6.346;2023-07-16T00:05:18;93904.75;;;29.96;36.64
65359;BME280;52491;45.900;6.346;2023-07-16T00:07:44;93905.84;;;29.95;36.12
65359;BME280;52491;45.900;6.346;2023-07-16T00:10:09;93906.66;;;29.96;36.32
65359;BME280;52491;45.900;6.346;2023-07-16T00:12:35;93914.53;;;29.92;36.19
65359;BME280;52491;45.900;6.346;2023-07-16T00:15:01;93911.81;;;29.92;36.67
65359;BME280;52491;45.900;6.346;2023-07-16T00:17:26;93925.28;;;29.92;36.32
65359;BME280;52491;45.900;6.346;2023-07-16T00:19:52;93912.75;;;28.98;38.03
65359;BME280;52491;45.900;6.346;2023-07-16T00:22:17;93911.69;;;28.80;38.72
65359;BME280;52491;45.900;6.346;2023-07-16T00:24:43;93899.44;;;28.74;38.55
65359;BME280;52491;45.900;6.346;2023-07-16T00:27:08;93901.88;;;28.70;38.88
65359;BME280;52491;45.900;6.346;2023-07-16T00:29:34;93909.13;;;28.70;38.95
65359;BME280;52491;45.900;6.346;2023-07-16T00:31:59;93912.59;;;28.70;38.89
65359;BME280;52491;45.900;6.346;2023-07-16T00:34:25;93922.84;;;28.68;39.00
65359;BME280;52491;45.900;6.346;2023-07-16T00:36:50;93917.47;;;28.68;38.89
65359;BME280;52491;45.900;6.346;2023-07-16T00:39:16;93905.13;;;28.67;38.96
65359;BME280;52491;45.900;6.346;2023-07-16T00:41:41;93915.38;;;28.65;39.21
65359;BME280;52491;45.900;6.346;2023-07-16T00:44:07;93911.88;;;28.65;38.99
65359;BME280;52491;45.900;6.346;2023-07-16T00:46:33;93907.59;;;28.64;38.78
65359;BME280;52491;45.900;6.346;2023-07-16T00:48:58;93897.97;;;28.63;39.12
65359;BME280;52491;45.900;6.346;2023-07-16T00:51:24;93903.03;;;28.64;39.02
65359;BME280;52491;45.900;6.346;2023-07-16T00:53:51;93904.91;;;28.64;39.01
65359;BME280;52491;45.900;6.346;2023-07-16T00:56:17;93914.56;;;28.65;39.18
65359;BME280;52491;45.900;6.346;2023-07-16T00:58:46;93921.28;;;28.62;38.71
65359;BME280;52491;45.900;6.346;2023-07-16T01:01:11;93919.13;;;28.64;38.97
65359;BME280;52491;45.900;6.346;2023-07-16T01:03:37;93914.56;;;28.65;38.90
65359;BME280;52491;45.900;6.346;2023-07-16T01:08:49;93920.75;;;28.65;39.38
65359;BME280;52491;45.900;6.346;2023-07-16T01:11:18;93919.91;;;28.65;38.79
65359;BME280;52491;45.900;6.346;2023-07-16T01:13:44;93918.34;;;28.64;38.84
65359;BME280;52491;45.900;6.346;2023-07-16T01:16:20;93909.19;;;28.65;38.89
65359;BME280;52491;45.900;6.346;2023-07-16T01:18:46;93917.25;;;28.65;38.95
65359;BME280;52491;45.900;6.346;2023-07-16T01:21:12;93918.06;;;28.65;38.99
65359;BME280;52491;45.900;6.346;2023-07-16T01:31:51;93914.84;;;28.63;38.74
65359;BME280;52491;45.900;6.346;2023-07-16T01:34:18;93904.13;;;28.63;38.80
65359;BME280;52491;45.900;6.346;2023-07-16T01:36:46;93908.69;;;28.63;38.79
65359;BME280;52491;45.900;6.346;2023-07-16T01:39:11;93915.13;;;28.62;39.13
65359;BME280;52491;45.900;6.346;2023-07-16T01:41:37;93915.94;;;28.62;38.79
65359;BME280;52491;45.900;6.346;2023-07-16T01:44:03;93920.22;;;28.63;38.68
65359;BME280;52491;45.900;6.346;2023-07-16T01:46:28;93914.06;;;28.63;38.36
65359;BME280;52491;45.900;6.346;2023-07-16T01:48:54;93912.44;;;28.62;38.78
65359;BME280;52491;45.900;6.346;2023-07-16T01:51:20;93916.75;;;28.63;38.48
65359;BME280;52491;45.900;6.346;2023-07-16T01:53:46;93924.78;;;28.63;38.48
65359;BME280;52491;45.900;6.346;2023-07-16T01:56:12;93922.97;;;28.58;38.44
65359;BME280;52491;45.900;6.346;2023-07-16T01:58:38;93930.22;;;28.58;38.38
65359;BME280;52491;45.900;6.346;2023-07-16T02:01:03;93926.97;;;28.61;38.41
65359;BME280;52491;45.900;6.346;2023-07-16T02:03:29;93932.31;;;28.61;38.39
65359;BME280;52491;45.900;6.346;2023-07-16T02:05:55;93934.22;;;28.60;38.52
65359;BME280;52491;45.900;6.346;2023-07-16T02:08:20;93932.59;;;28.59;38.43
65359;BME280;52491;45.900;6.346;2023-07-16T02:10:49;93943.31;;;28.59;38.37
65359;BME280;52491;45.900;6.346;2023-07-16T02:13:15;93939.84;;;28.59;38.56
65359;BME280;52491;45.900;6.346;2023-07-16T02:15:42;93933.41;;;28.60;38.27
65359;BME280;52491;45.900;6.346;2023-07-16T02:18:08;93939.06;;;28.58;38.59
65359;BME280;52491;45.900;6.346;2023-07-16T02:20:34;93949.78;;;28.58;38.60
65359;BME280;52491;45.900;6.346;2023-07-16T02:23:01;93948.22;;;28.57;38.42
65359;BME280;52491;45.900;6.346;2023-07-16T02:25:26;93956.25;;;28.57;38.51
65359;BME280;52491;45.900;6.346;2023-07-16T02:27:52;93956.25;;;28.57;38.51
65359;BME280;52491;45.900;6.346;2023-07-16T02:30:18;93952.75;;;28.56;38.73
65359;BME280;52491;45.900;6.346;2023-07-16T02:32:43;93952.47;;;28.58;38.59
65359;BME280;52491;45.900;6.346;2023-07-16T02:35:09;93941.22;;;28.56;38.51
65359;BME280;52491;45.900;6.346;2023-07-16T02:37:35;93945.78;;;28.55;38.93
65359;BME280;52491;45.900;6.346;2023-07-16T02:40:01;93949.56;;;28.54;38.50
65359;BME280;52491;45.900;6.346;2023-07-16T02:42:28;93959.50;;;28.54;38.98
65359;BME280;52491;45.900;6.346;2023-07-16T02:44:54;93967.56;;;28.54;38.43
65359;BME280;52491;45.900;6.346;2023-07-16T02:47:19;93967.03;;;28.52;38.67
65359;BME280;52491;45.900;6.346;2023-07-16T02:49:45;93970.00;;;28.50;38.96
65359;BME280;52491;45.900;6.346;2023-07-16T02:52:10;93969.19;;;28.50;38.74
65359;BME280;52491;45.900;6.346;2023-07-16T02:54:36;93959.25;;;28.50;38.79
65359;BME280;52491;45.900;6.346;2023-07-16T02:57:02;93972.69;;;28.50;38.56
65359;BME280;52491;45.900;6.346;2023-07-16T02:59:28;93980.72;;;28.50;38.83
65359;BME280;52491;45.900;6.346;2023-07-16T03:01:54;93979.13;;;28.49;38.69
65359;BME280;52491;45.900;6.346;2023-07-16T03:04:19;93978.56;;;28.52;38.54
65359;BME280;52491;45.900;6.346;2023-07-16T03:06:45;93977.25;;;28.50;38.80
65359;BME280;52491;45.900;6.346;2023-07-16T03:09:10;93969.19;;;28.50;38.77
65359;BME280;52491;45.900;6.346;2023-07-16T03:11:36;93964.34;;;28.52;38.57
65359;BME280;52491;45.900;6.346;2023-07-16T03:14:02;93964.34;;;28.52;38.78
65359;BME280;52491;45.900;6.346;2023-07-16T03:16:27;93970.00;;;28.50;38.79
65359;BME280;52491;45.900;6.346;2023-07-16T03:18:53;93965.16;;;28.52;38.50
65359;BME280;52491;45.900;6.346;2023-07-16T03:21:19;93960.88;;;28.51;38.67
65359;BME280;52491;45.900;6.346;2023-07-16T03:23:44;93965.16;;;28.52;38.76
65359;BME280;52491;45.900;6.346;2023-07-16T03:26:10;93964.63;;;28.50;38.56
65359;BME280;52491;45.900;6.346;2023-07-16T03:28:35;93966.50;;;28.50;38.84
65359;BME280;52491;45.900;6.346;2023-07-16T03:31:01;93957.38;;;28.51;38.71
65359;BME280;52491;45.900;6.346;2023-07-16T03:33:27;93956.31;;;28.52;38.44
65359;BME280;52491;45.900;6.346;2023-07-16T03:35:52;93959.25;;;28.50;38.78
65359;BME280;52491;45.900;6.346;2023-07-16T03:38:18;93960.06;;;28.51;38.45
65359;BME280;52491;45.900;6.346;2023-07-16T03:40:46;93960.56;;;28.53;38.60
65359;BME280;52491;45.900;6.346;2023-07-16T03:43:13;93957.09;;;28.52;38.42
65359;BME280;52491;45.900;6.346;2023-07-16T03:45:39;93960.88;;;28.51;38.57
65359;BME280;52491;45.900;6.346;2023-07-16T03:48:04;93959.00;;;28.52;38.80
65359;BME280;52491;45.900;6.346;2023-07-16T03:50:30;93958.19;;;28.51;38.68
65359;BME280;52491;45.900;6.346;2023-07-16T03:52:56;93960.88;;;28.51;38.75
65359;BME280;52491;45.900;6.346;2023-07-16T03:55:21;93966.25;;;28.51;38.52
65359;BME280;52491;45.900;6.346;2023-07-16T03:57:47;93965.41;;;28.51;38.66
65359;BME280;52491;45.900;6.346;2023-07-16T04:00:13;93962.75;;;28.51;38.77
65359;BME280;52491;45.900;6.346;2023-07-16T04:02:38;93957.69;;;28.49;38.40
65359;BME280;52491;45.900;6.346;2023-07-16T04:05:04;93959.56;;;28.49;38.57
65359;BME280;52491;45.900;6.346;2023-07-16T04:07:30;93961.44;;;28.48;38.64
65359;BME280;52491;45.900;6.346;2023-07-16T04:09:55;93974.03;;;28.48;38.29
65359;BME280;52491;45.900;6.346;2023-07-16T04:12:21;93961.44;;;28.48;38.51
65359;BME280;52491;45.900;6.346;2023-07-16T04:14:47;93952.09;;;28.46;38.63
65359;BME280;52491;45.900;6.346;2023-07-16T04:17:13;93960.94;;;28.46;38.35
65359;BME280;52491;45.900;6.346;2023-07-16T04:19:39;93957.47;;;28.46;38.43
65359;BME280;52491;45.900;6.346;2023-07-16T04:22:05;93951.28;;;28.45;38.64
65359;BME280;52491;45.900;6.346;2023-07-16T04:24:30;93948.91;;;28.44;38.43
65359;BME280;52491;45.900;6.346;2023-07-16T04:26:58;93958.00;;;28.43;38.71
65359;BME280;52491;45.900;6.346;2023-07-16T04:29:24;93975.72;;;28.44;38.61
65359;BME280;52491;45.900;6.346;2023-07-16T04:31:50;93967.66;;;28.44;38.42
65359;BME280;52491;45.900;6.346;2023-07-16T04:34:16;93968.72;;;28.43;38.49
65359;BME280;52491;45.900;6.346;2023-07-16T04:36:44;93962.56;;;28.42;38.42
65359;BME280;52491;45.900;6.346;2023-07-16T04:39:10;93969.78;;;28.42;38.50
65359;BME280;52491;45.900;6.346;2023-07-16T04:41:36;93981.06;;;28.44;38.52
65359;BME280;52491;45.900;6.346;2023-07-16T04:44:02;93995.28;;;28.44;38.59
65359;BME280;52491;45.900;6.346;2023-07-16T04:46:27;94004.91;;;28.45;38.33
65359;BME280;52491;45.900;6.346;2023-07-16T04:48:53;94003.06;;;28.46;38.42
65359;BME280;52491;45.900;6.346;2023-07-16T04:51:22;93996.59;;;28.47;38.17
65359;BME280;52491;45.900;6.346;2023-07-16T04:53:48;93986.13;;;28.45;38.16
65359;BME280;52491;45.900;6.346;2023-07-16T04:56:15;93993.38;;;28.45;38.16
65359;BME280;52491;45.900;6.346;2023-07-16T04:58:42;93993.38;;;28.45;38.43
65359;BME280;52491;45.900;6.346;2023-07-16T05:01:08;93988.81;;;28.45;38.28
65359;BME280;52491;45.900;6.346;2023-07-16T05:03:34;93998.75;;;28.45;38.34
65359;BME280;52491;45.900;6.346;2023-07-16T05:06:00;93994.19;;;28.45;38.32
65359;BME280;52491;45.900;6.346;2023-07-16T05:08:26;93988.53;;;28.47;38.30
65359;BME280;52491;45.900;6.346;2023-07-16T05:10:51;93981.06;;;28.44;38.16
65359;BME280;52491;45.900;6.346;2023-07-16T05:13:17;93985.66;;;28.43;38.43
65359;BME280;52491;45.900;6.346;2023-07-16T05:15:46;93988.03;;;28.45;38.34
65359;BME280;52491;45.900;6.346;2023-07-16T05:18:12;93991.00;;;28.43;38.38
65359;BME280;52491;45.900;6.346;2023-07-16T05:20:38;93990.19;;;28.43;38.34
65359;BME280;52491;45.900;6.346;2023-07-16T05:23:03;93992.06;;;28.42;38.07
65359;BME280;52491;45.900;6.346;2023-07-16T05:25:29;93997.16;;;28.44;38.23
65359;BME280;52491;45.900;6.346;2023-07-16T05:27:55;93997.16;;;28.44;38.03
65359;BME280;52491;45.900;6.346;2023-07-16T05:30:21;94004.66;;;28.42;38.50
65359;BME280;52491;45.900;6.346;2023-07-16T05:32:46;94008.97;;;28.43;38.42
65359;BME280;52491;45.900;6.346;2023-07-16T05:35:12;94002.81;;;28.42;38.16
65359;BME280;52491;45.900;6.346;2023-07-16T05:37:38;93996.88;;;28.45;38.20
65359;BME280;52491;45.900;6.346;2023-07-16T05:40:04;94004.13;;;28.45;38.21
65359;BME280;52491;45.900;6.346;2023-07-16T05:42:29;94003.59;;;28.43;38.15
65359;BME280;52491;45.900;6.346;2023-07-16T05:44:55;93997.44;;;28.42;38.22
65359;BME280;52491;45.900;6.346;2023-07-16T05:47:21;94004.66;;;28.42;38.19
65359;BME280;52491;45.900;6.346;2023-07-16T05:49:46;94008.69;;;28.44;38.20
65359;BME280;52491;45.900;6.346;2023-07-16T05:52:12;93995.28;;;28.44;38.12
65359;BME280;52491;45.900;6.346;2023-07-16T05:54:38;94007.59;;;28.45;37.93
65359;BME280;52491;45.900;6.346;2023-07-16T05:57:04;94006.81;;;28.45;38.26
65359;BME280;52491;45.900;6.346;2023-07-16T05:59:29;94010.56;;;28.44;38.20
65359;BME280;52491;45.900;6.346;2023-07-16T06:01:59;94011.38;;;28.44;38.28
65359;BME280;52491;45.900;6.346;2023-07-16T06:04:25;94019.41;;;28.44;38.21
65359;BME280;52491;45.900;6.346;2023-07-16T06:06:50;94042.75;;;28.44;38.14
65359;BME280;52491;45.900;6.346;2023-07-16T06:09:16;94052.38;;;28.45;38.15
65359;BME280;52491;45.900;6.346;2023-07-16T06:11:41;94038.97;;;28.45;38.10
65359;BME280;52491;45.900;6.346;2023-07-16T06:14:08;94016.47;;;28.46;38.14
65359;BME280;52491;45.900;6.346;2023-07-16T06:16:34;94018.06;;;28.47;38.04
65359;BME280;52491;45.900;6.346;2023-07-16T06:18:59;94026.66;;;28.44;38.20
65359;BME280;52491;45.900;6.346;2023-07-16T06:21:25;94029.88;;;28.46;38.26
65359;BME280;52491;45.900;6.346;2023-07-16T06:23:50;94016.47;;;28.46;38.17
65359;BME280;52491;45.900;6.346;2023-07-16T06:26:16;94006.22;;;28.48;38.03
65359;BME280;52491;45.900;6.346;2023-07-16T06:28:41;94015.88;;;28.49;37.89
65359;BME280;52491;45.900;6.346;2023-07-16T06:31:07;94030.38;;;28.48;38.04
65359;BME280;52491;45.900;6.346;2023-07-16T06:33:32;94024.22;;;28.47;37.89
65359;BME280;52491;45.900;6.346;2023-07-16T06:35:58;94027.41;;;28.49;38.21
65359;BME280;52491;45.900;6.346;2023-07-16T06:38:24;94025.00;;;28.48;37.98
65359;BME280;52491;45.900;6.346;2023-07-16T06:40:50;94018.56;;;28.49;37.91
65359;BME280;52491;45.900;6.346;2023-07-16T06:43:16;94025.00;;;28.48;38.13
65359;BME280;52491;45.900;6.346;2023-07-16T06:45:42;94027.19;;;28.46;38.00
65359;BME280;52491;45.900;6.346;2023-07-16T06:48:08;94012.47;;;28.43;38.23
65359;BME280;52491;45.900;6.346;2023-07-16T06:50:34;94009.78;;;28.43;38.09
65359;BME280;52491;45.900;6.346;2023-07-16T06:53:00;94009.47;;;28.45;38.11
65359;BME280;52491;45.900;6.346;2023-07-16T06:55:25;94005.72;;;28.46;38.10
65359;BME280;52491;45.900;6.346;2023-07-16T06:57:51;94007.59;;;28.45;38.16
65359;BME280;52491;45.900;6.346;2023-07-16T07:00:17;94005.72;;;28.46;38.04
65359;BME280;52491;45.900;6.346;2023-07-16T07:02:43;93996.06;;;28.45;38.01
65359;BME280;52491;45.900;6.346;2023-07-16T07:05:08;93995.00;;;28.46;38.09
65359;BME280;52491;45.900;6.346;2023-07-16T07:07:34;93998.75;;;28.45;37.95
65359;BME280;52491;45.900;6.346;2023-07-16T07:10:00;94002.22;;;28.45;38.17
65359;BME280;52491;45.900;6.346;2023-07-16T07:12:25;93999.84;;;28.44;37.92
65359;BME280;52491;45.900;6.346;2023-07-16T07:14:51;94000.13;;;28.42;38.05
65359;BME280;52491;45.900;6.346;2023-07-16T07:17:16;93993.94;;;28.42;38.16
65359;BME280;52491;45.900;6.346;2023-07-16T07:19:43;93993.94;;;28.42;38.19
65359;BME280;52491;45.900;6.346;2023-07-16T07:22:08;93986.72;;;28.42;38.00
65359;BME280;52491;45.900;6.346;2023-07-16T07:24:34;93987.22;;;28.44;38.11
65359;BME280;52491;45.900;6.346;2023-07-16T07:26:59;93985.66;;;28.43;38.11
65359;BME280;52491;45.900;6.346;2023-07-16T07:29:25;93990.19;;;28.43;38.21
65359;BME280;52491;45.900;6.346;2023-07-16T07:31:52;93988.31;;;28.43;38.11
65359;BME280;52491;45.900;6.346;2023-07-16T07:34:18;93982.97;;;28.43;38.07
65359;BME280;52491;45.900;6.346;2023-07-16T07:36:45;93977.84;;;28.42;38.26
65359;BME280;52491;45.900;6.346;2023-07-16T07:39:12;93995.53;;;28.43;38.16
65359;BME280;52491;45.900;6.346;2023-07-16T07:41:38;93992.88;;;28.43;37.91
65359;BME280;52491;45.900;6.346;2023-07-16T07:44:04;93992.88;;;28.43;38.16
65359;BME280;52491;45.900;6.346;2023-07-16T07:46:30;93996.38;;;28.43;37.96
65359;BME280;52491;45.900;6.346;2023-07-16T07:48:55;93991.50;;;28.45;38.09
65359;BME280;52491;45.900;6.346;2023-07-16T07:51:21;93997.38;;;28.47;38.01
65359;BME280;52491;45.900;6.346;2023-07-16T07:53:47;93993.38;;;28.45;38.08
65359;BME280;52491;45.900;6.346;2023-07-16T07:56:12;93997.13;;;28.49;38.29
65359;BME280;52491;45.900;6.346;2023-07-16T07:58:38;94002.19;;;28.50;38.14
65359;BME280;52491;45.900;6.346;2023-07-16T08:01:07;93996.28;;;28.48;38.14
65359;BME280;52491;45.900;6.346;2023-07-16T08:03:33;93996.59;;;28.47;38.52
65359;BME280;52491;45.900;6.346;2023-07-16T08:05:59;94001.38;;;28.50;38.41
65359;BME280;52491;45.900;6.346;2023-07-16T08:08:25;94000.28;;;28.51;38.29
65359;BME280;52491;45.900;6.346;2023-07-16T08:10:51;93997.34;;;28.52;38.17
65359;BME280;52491;45.900;6.346;2023-07-16T08:13:16;93999.22;;;28.52;38.57
65359;BME280;52491;45.900;6.346;2023-07-16T08:15:42;93998.44;;;28.51;38.47
65359;BME280;52491;45.900;6.346;2023-07-16T08:18:08;93996.25;;;28.53;38.22
65359;BME280;52491;45.900;6.346;2023-07-16T08:20:35;93993.28;;;28.55;38.61
65359;BME280;52491;45.900;6.346;2023-07-16T08:23:01;93994.06;;;28.55;38.54
65359;BME280;52491;45.900;6.346;2023-07-16T08:25:26;93994.88;;;28.56;38.40
65359;BME280;52491;45.900;6.346;2023-07-16T08:27:52;93997.56;;;28.56;38.43
65359;BME280;52491;45.900;6.346;2023-07-16T08:30:18;93998.34;;;28.56;38.43
65359;BME280;52491;45.900;6.346;2023-07-16T08:32:43;93999.66;;;28.59;38.50
65359;BME280;52491;45.900;6.346;2023-07-16T08:35:09;93995.91;;;28.60;38.46
65359;BME280;52491;45.900;6.346;2023-07-16T08:37:41;93989.75;;;28.60;38.22
65359;BME280;52491;45.900;6.346;2023-07-16T08:40:07;93991.34;;;28.61;38.13
65359;BME280;52491;45.900;6.346;2023-07-16T08:42:37;93992.66;;;28.63;38.51
65359;BME280;52491;45.900;6.346;2023-07-16T08:45:06;93991.34;;;28.61;38.48
65359;BME280;52491;45.900;6.346;2023-07-16T08:47:33;93984.59;;;28.63;38.22
65359;BME280;52491;45.900;6.346;2023-07-16T08:50:00;93984.88;;;28.62;38.35
65359;BME280;52491;45.900;6.346;2023-07-16T08:52:27;93983.00;;;28.62;38.40
65359;BME280;52491;45.900;6.346;2023-07-16T08:54:53;93983.28;;;28.61;38.44
65359;BME280;52491;45.900;6.346;2023-07-16T08:57:20;93983.81;;;28.63;38.42
65359;BME280;52491;45.900;6.346;2023-07-16T08:59:50;93979.25;;;28.63;38.47
65359;BME280;52491;45.900;6.346;2023-07-16T09:02:20;93974.66;;;28.64;38.36
65359;BME280;52491;45.900;6.346;2023-07-16T09:04:47;93982.19;;;28.62;38.67
65359;BME280;52491;45.900;6.346;2023-07-16T09:07:14;93985.19;;;28.60;38.79
65359;BME280;52491;45.900;6.346;2023-07-16T09:09:39;93975.53;;;28.59;38.77
65359;BME280;52491;45.900;6.346;2023-07-16T09:12:05;93981.13;;;28.63;38.49
65359;BME280;52491;45.900;6.346;2023-07-16T09:14:31;93976.84;;;28.62;38.51
65359;BME280;52491;45.900;6.346;2023-07-16T09:16:56;93976.56;;;28.63;38.69
65359;BME280;52491;45.900;6.346;2023-07-16T09:19:22;93981.41;;;28.61;38.41
65359;BME280;52491;45.900;6.346;2023-07-16T09:21:49;93970.66;;;28.61;38.71
65359;BME280;52491;45.900;6.346;2023-07-16T09:24:15;93974.16;;;28.62;38.78
65359;BME280;52491;45.900;6.346;2023-07-16T09:26:54;93978.16;;;28.64;38.37
65359;BME280;52491;45.900;6.346;2023-07-16T09:29:20;93969.88;;;28.61;38.69
65359;BME280;52491;45.900;6.346;2023-07-16T09:31:56;93973.09;;;28.63;38.43
65359;BME280;52491;45.900;6.346;2023-07-16T09:34:22;93976.03;;;28.61;38.68
65359;BME280;52491;45.900;6.346;2023-07-16T09:36:49;93968.78;;;28.62;38.80
65359;BME280;52491;45.900;6.346;2023-07-16T09:39:17;93968.50;;;28.63;38.75
65359;BME280;52491;45.900;6.346;2023-07-16T09:41:44;93965.03;;;28.63;38.80
65359;BME280;52491;45.900;6.346;2023-07-16T09:44:11;93963.16;;;28.63;38.92
65359;BME280;52491;45.900;6.346;2023-07-16T09:46:37;93958.56;;;28.64;39.02
65359;BME280;52491;45.900;6.346;2023-07-16T09:49:02;93957.00;;;28.63;38.67
65359;BME280;52491;45.900;6.346;2023-07-16T09:51:30;93954.78;;;28.65;38.58
65359;BME280;52491;45.900;6.346;2023-07-16T09:54:03;93944.06;;;28.65;38.85
65359;BME280;52491;45.900;6.346;2023-07-16T09:56:36;93950.25;;;28.65;38.72
65359;BME280;52491;45.900;6.346;2023-07-16T09:59:07;93943.00;;;28.66;38.69
65359;BME280;52491;45.900;6.346;2023-07-16T10:01:33;93939.22;;;28.67;38.27
65359;BME280;52491;45.900;6.346;2023-07-16T10:06:49;93934.38;;;28.69;38.38
65359;BME280;52491;45.900;6.346;2023-07-16T10:09:31;93935.16;;;28.69;38.54
65359;BME280;52491;45.900;6.346;2023-07-16T10:12:16;93929.78;;;28.69;38.43
65359;BME280;52491;45.900;6.346;2023-07-16T10:17:15;93937.56;;;28.71;38.33
65359;BME280;52491;45.900;6.346;2023-07-16T10:20:00;93934.06;;;28.70;39.02
65359;BME280;52491;45.900;6.346;2023-07-16T10:22:45;93928.69;;;28.70;38.81
65359;BME280;52491;45.900;6.346;2023-07-16T10:27:44;93928.22;;;28.68;38.83
65359;BME280;52491;45.900;6.346;2023-07-16T10:30:11;93929.00;;;28.69;39.04
65359;BME280;52491;45.900;6.346;2023-07-16T10:32:37;93925.22;;;28.70;38.84
65359;BME280;52491;45.900;6.346;2023-07-16T10:35:05;93920.66;;;28.70;38.62
65359;BME280;52491;45.900;6.346;2023-07-16T10:37:31;93919.59;;;28.71;38.69
65359;BME280;52491;45.900;6.346;2023-07-16T10:39:58;93916.91;;;28.71;38.69
65359;BME280;52491;45.900;6.346;2023-07-16T10:42:25;93915.81;;;28.72;38.90
65359;BME280;52491;45.900;6.346;2023-07-16T10:44:52;93916.91;;;28.71;39.08
65359;BME280;52491;45.900;6.346;2023-07-16T10:47:28;93910.75;;;28.71;38.70
65359;BME280;52491;45.900;6.346;2023-07-16T10:49:54;93909.66;;;28.72;39.13
65359;BME280;52491;45.900;6.346;2023-07-16T10:52:23;93904.56;;;28.70;39.31
65359;BME280;52491;45.900;6.346;2023-07-16T10:54:50;93905.06;;;28.72;39.18
65359;BME280;52491;45.900;6.346;2023-07-16T10:57:20;93909.34;;;28.73;38.93
65359;BME280;52491;45.900;6.346;2023-07-16T10:59:46;93901.28;;;28.73;38.95
65359;BME280;52491;45.900;6.346;2023-07-16T11:02:15;93892.44;;;28.73;39.24
65359;BME280;52491;45.900;6.346;2023-07-16T11:04:43;93888.69;;;28.74;39.02
65359;BME280;52491;45.900;6.346;2023-07-16T11:07:12;93883.34;;;28.74;39.29
65359;BME280;52491;45.900;6.346;2023-07-16T11:09:47;93885.19;;;28.73;38.97
65359;BME280;52491;45.900;6.346;2023-07-16T11:12:17;93883.34;;;28.74;39.41
65359;BME280;52491;45.900;6.346;2023-07-16T11:14:50;93879.03;;;28.73;39.39
65359;BME280;52491;45.900;6.346;2023-07-16T11:17:16;93882.81;;;28.72;39.41
65359;BME280;52491;45.900;6.346;2023-07-16T11:19:45;93879.81;;;28.73;39.41
65359;BME280;52491;45.900;6.346;2023-07-16T11:22:11;93875.56;;;28.72;39.62
65359;BME280;52491;45.900;6.346;2023-07-16T11:24:42;93872.88;;;28.72;39.67
65359;BME280;52491;45.900;6.346;2023-07-16T11:27:27;93862.66;;;28.74;39.17
65359;BME280;52491;45.900;6.346;2023-07-16T11:29:55;93860.75;;;28.75;39.52
65359;BME280;52491;45.900;6.346;2023-07-16T11:32:43;93863.97;;;28.77;39.41
65359;BME280;52491;45.900;6.346;2023-07-16T11:35:15;93849.91;;;28.85;39.05
65359;BME280;52491;45.900;6.346;2023-07-16T11:37:41;93842.31;;;28.87;39.25
65359;BME280;52491;45.900;6.346;2023-07-16T11:40:09;93843.16;;;28.88;39.31
65359;BME280;52491;45.900;6.346;2023-07-16T11:42:39;93836.38;;;28.90;38.90
65359;BME280;52491;45.900;6.346;2023-07-16T11:45:23;93830.72;;;28.92;38.76
65359;BME280;52491;45.900;6.346;2023-07-16T11:47:52;93829.94;;;28.91;38.70
65359;BME280;52491;45.900;6.346;2023-07-16T11:50:17;93822.09;;;28.95;38.90
65359;BME280;52491;45.900;6.346;2023-07-16T11:52:52;93829.03;;;28.96;38.94
65359;BME280;52491;45.900;6.346;2023-07-16T11:55:19;93831.25;;;28.94;39.08
65359;BME280;52491;45.900;6.346;2023-07-16T11:57:44;93820.00;;;28.92;38.62
65359;BME280;52491;45.900;6.346;2023-07-16T12:00:10;93825.56;;;28.95;38.88
65359;BME280;52491;45.900;6.346;2023-07-16T12:02:36;93817.22;;;28.97;38.81
65359;BME280;52491;45.900;6.346;2023-07-16T12:05:02;93825.88;;;28.94;38.94
65359;BME280;52491;45.900;6.346;2023-07-16T12:09:58;93828.56;;;28.94;38.59
65359;BME280;52491;45.900;6.346;2023-07-16T12:12:23;93821.31;;;28.94;38.79
65359;BME280;52491;45.900;6.346;2023-07-16T12:14:49;93823.19;;;28.94;38.91
65359;BME280;52491;45.900;6.346;2023-07-16T12:17:14;93834.28;;;28.87;38.97
65359;BME280;52491;45.900;6.346;2023-07-16T12:19:40;93833.28;;;28.83;38.90
65359;BME280;52491;45.900;6.346;2023-07-16T12:22:06;93837.06;;;28.82;39.09
65359;BME280;52491;45.900;6.346;2023-07-16T12:24:31;93829.00;;;28.82;38.78
65359;BME280;52491;45.900;6.346;2023-07-16T12:26:57;93827.13;;;28.83;39.04
65359;BME280;52491;45.900;6.346;2023-07-16T12:29:22;93830.28;;;28.85;39.27
65359;BME280;52491;45.900;6.346;2023-07-16T12:31:49;93824.91;;;28.85;38.99
65359;BME280;52491;45.900;6.346;2023-07-16T12:34:14;93818.47;;;28.86;38.99
65359;BME280;52491;45.900;6.346;2023-07-16T12:36:40;93822.53;;;28.83;39.04
65359;BME280;52491;45.900;6.346;2023-07-16T12:39:05;93830.59;;;28.83;38.94
65359;BME280;52491;45.900;6.346;2023-07-16T12:41:31;93832.50;;;28.83;39.00
65359;BME280;52491;45.900;6.346;2023-07-16T12:43:56;93823.94;;;28.81;39.07
65359;BME280;52491;45.900;6.346;2023-07-16T12:46:22;93831.97;;;28.81;38.95
65359;BME280;52491;45.900;6.346;2023-07-16T12:48:47;93836.25;;;28.82;38.93
65359;BME280;52491;45.900;6.346;2023-07-16T12:51:13;93831.97;;;28.81;39.12
65359;BME280;52491;45.900;6.346;2023-07-16T12:53:38;93827.72;;;28.80;39.12
65359;BME280;52491;45.900;6.346;2023-07-16T12:56:05;93839.22;;;28.80;39.15
65359;BME280;52491;45.900;6.346;2023-07-16T12:58:30;93839.88;;;28.91;38.73
65359;BME280;52491;45.900;6.346;2023-07-16T13:00:56;93839.56;;;28.92;38.75
65359;BME280;52491;45.900;6.346;2023-07-16T13:03:21;93835.81;;;28.93;38.85
65359;BME280;52491;45.900;6.346;2023-07-16T13:05:47;93839.50;;;28.97;38.70
65359;BME280;52491;45.900;6.346;2023-07-16T13:08:13;93827.75;;;28.93;38.82
65359;BME280;52491;45.900;6.346;2023-07-16T13:10:39;93832.41;;;28.88;38.94
65359;BME280;52491;45.900;6.346;2023-07-16T13:13:05;93827.13;;;28.83;39.03
65359;BME280;52491;45.900;6.346;2023-07-16T13:15:33;93825.22;;;28.83;39.00
65359;BME280;52491;45.900;6.346;2023-07-16T13:17:58;93828.72;;;28.84;39.06